Time;durP1;ratioP1;P1;durP2;ratioP2;P2;SDS_P1;SDS_P2;PMS_P1;PMS_P2;Temp;Humidity;BMP_temperature;BMP_pressure;BME280_temperature;BME280_humidity;BME280_pressure;Samples;Min_cycle;Max_cycle;Signal;HPM_P1;HPM_P2
2023/10/18 00:04:30;;;;;;;7.27;3.13;;;7.50;99.90;;;;;;10354298;28;20506;-76
2023/10/18 00:09:52;;;;;;;4.83;3.10;;;7.60;1.00;;;;;;10339070;28;20244;-77
2023/10/18 00:15:14;;;;;;;4.60;3.20;;;7.70;99.90;;;;;;10354380;28;20191;-77
2023/10/18 00:20:35;;;;;;;5.17;3.30;;;7.80;99.90;;;;;;10356645;28;20225;-77
2023/10/18 00:26:00;;;;;;;8.27;3.20;;;7.80;99.90;;;;;;10361097;28;20195;-76
2023/10/18 00:31:21;;;;;;;3.97;2.77;;;7.80;99.90;;;;;;10361053;28;20224;-77
2023/10/18 00:36:43;;;;;;;6.63;3.10;;;7.80;1.00;;;;;;10320472;28;20218;-75
2023/10/18 00:48:05;;;;;;;5.37;3.20;;;7.80;1.00;;;;;;10277117;28;20251;-74
2023/10/18 00:53:33;;;;;;;6.97;2.77;;;7.80;81.70;;;;;;10263809;29;20232;-75
2023/10/18 00:58:58;;;;;;;7.20;3.00;;;7.80;1.00;;;;;;10263433;29;20492;-75
2023/10/18 01:04:23;;;;;;;5.20;2.30;;;7.70;1.00;;;;;;10276321;29;20506;-75
2023/10/18 01:09:48;;;;;;;5.20;2.83;;;7.80;1.00;;;;;;10249380;28;20231;-75
2023/10/18 01:15:12;;;;;;;6.07;2.90;;;7.80;1.00;;;;;;10262493;29;20203;-77
2023/10/18 01:20:37;;;;;;;5.23;2.90;;;7.80;99.90;;;;;;10320407;28;20290;-76
2023/10/18 01:25:59;;;;;;;4.83;2.37;;;7.80;99.90;;;;;;10360107;28;20215;-77
2023/10/18 01:31:22;;;;;;;7.00;2.63;;;7.80;99.90;;;;;;10358883;28;20264;-77
2023/10/18 01:36:43;;;;;;;6.70;2.63;;;7.90;99.90;;;;;;10358132;28;20283;-75
2023/10/18 01:42:06;;;;;;;5.47;2.77;;;7.80;1.00;;;;;;10358461;28;20187;-75
2023/10/18 01:47:27;;;;;;;8.30;2.90;;;7.90;1.00;;;;;;10344901;28;20196;-77
2023/10/18 01:52:52;;;;;;;6.60;2.40;;;7.90;99.90;;;;;;10357888;28;20295;-77
2023/10/18 01:58:14;;;;;;;6.37;2.70;;;7.90;99.90;;;;;;10358631;28;20221;-77
2023/10/18 02:03:36;;;;;;;5.70;2.73;;;7.90;1.00;;;;;;10357621;28;20191;-77
2023/10/18 02:08:57;;;;;;;2.70;2.27;;;7.90;1.00;;;;;;10357024;28;20226;-77
2023/10/18 02:14:19;;;;;;;5.47;2.80;;;7.90;99.90;;;;;;10357948;28;20238;-77
2023/10/18 02:19:40;;;;;;;3.27;2.43;;;7.90;1.00;;;;;;10356223;28;20220;-76
2023/10/18 02:25:02;;;;;;;5.77;2.37;;;7.80;1.00;;;;;;10356879;28;20487;-77
2023/10/18 02:30:23;;;;;;;4.80;2.30;;;7.80;1.00;;;;;;10321694;28;20224;-77
2023/10/18 02:35:46;;;;;;;5.17;2.30;;;7.80;1.00;;;;;;10315558;28;20199;-77
2023/10/18 02:41:26;;;;;;;6.30;2.57;;;7.80;99.90;;;;;;10332381;28;20248;-76
2023/10/18 02:46:53;;;;;;;3.37;1.83;;;7.70;1.00;;;;;;10356012;28;20186;-76
2023/10/18 02:52:16;;;;;;;6.33;2.20;;;7.70;1.00;;;;;;10355626;28;20233;-76
2023/10/18 02:57:40;;;;;;;4.07;1.80;;;7.80;99.90;;;;;;10356053;28;20190;-76
2023/10/18 03:03:01;;;;;;;7.50;2.40;;;7.80;1.00;;;;;;10341556;28;20195;-76
2023/10/18 03:08:23;;;;;;;4.37;2.23;;;7.80;1.00;;;;;;10356231;28;20207;-76
2023/10/18 03:13:46;;;;;;;5.47;1.77;;;7.80;1.00;;;;;;10354767;28;20195;-76
2023/10/18 03:19:12;;;;;;;4.27;2.10;;;7.80;19.00;;;;;;10355182;28;20202;-76
2023/10/18 03:24:36;;;;;;;4.57;2.30;;;7.90;1.00;;;;;;10314720;28;20501;-76
2023/10/18 03:29:59;;;;;;;2.40;1.50;;;8.00;99.90;;;;;;10316234;28;20686;-76
2023/10/18 03:35:21;;;;;;;4.20;2.27;;;8.00;99.90;;;;;;10343624;28;20187;-77
2023/10/18 03:40:56;;;;;;;9.70;3.43;;;8.00;1.00;;;;;;10353975;28;20207;-76
2023/10/18 03:46:28;;;;;;;9.97;5.97;;;8.00;1.00;;;;;;10354769;28;20199;-76
2023/10/18 03:51:53;;;;;;;4.67;2.70;;;8.00;1.00;;;;;;10354608;28;20222;-77
2023/10/18 03:57:19;;;;;;;5.00;2.20;;;8.00;99.90;;;;;;10354350;28;20215;-77
2023/10/18 04:02:45;;;;;;;3.93;2.10;;;8.00;99.90;;;;;;10339654;28;20199;-75
2023/10/18 04:08:07;;;;;;;4.27;2.10;;;8.00;99.90;;;;;;10354249;28;20198;-76
2023/10/18 04:13:31;;;;;;;8.50;3.30;;;8.00;1.00;;;;;;10354524;28;20192;-76
2023/10/18 04:18:53;;;;;;;5.93;3.53;;;8.00;1.00;;;;;;10353967;28;20194;-76
2023/10/18 04:24:14;;;;;;;4.87;2.83;;;8.00;1.00;;;;;;10352607;28;20204;-76
2023/10/18 04:29:39;;;;;;;3.17;2.00;;;8.00;86.60;;;;;;10353009;28;20227;-76
2023/10/18 04:35:00;;;;;;;4.60;2.50;;;8.00;1.00;;;;;;10354044;28;20190;-76
2023/10/18 04:40:22;;;;;;;6.33;1.70;;;8.00;99.90;;;;;;10353410;28;20255;-76
2023/10/18 04:45:54;;;;;;;4.57;2.13;;;7.90;1.00;;;;;;10353742;28;20378;-77
2023/10/18 04:51:28;;;;;;;4.87;2.07;;;8.00;99.90;;;;;;10352179;28;20239;-75
2023/10/18 04:56:56;;;;;;;3.50;2.03;;;8.00;99.90;;;;;;10353877;28;20199;-78
2023/10/18 05:02:17;;;;;;;5.83;1.90;;;8.00;99.90;;;;;;10353437;28;20223;-77
2023/10/18 05:07:40;;;;;;;3.07;1.77;;;8.00;99.90;;;;;;10355129;28;20197;-78
2023/10/18 05:13:02;;;;;;;4.20;1.90;;;8.00;1.00;;;;;;10360163;28;20219;-76
2023/10/18 05:18:24;;;;;;;6.03;2.57;;;7.90;1.00;;;;;;10359687;28;20223;-77
2023/10/18 05:23:45;;;;;;;5.53;2.70;;;7.90;99.90;;;;;;10335960;28;20241;-77
2023/10/18 05:29:09;;;;;;;4.43;2.27;;;7.90;99.90;;;;;;10341733;28;20575;-77
2023/10/18 05:34:48;;;;;;;5.10;2.10;;;7.90;99.90;;;;;;10359740;28;20187;-76
2023/10/18 05:45:56;;;;;;;3.20;2.03;;;7.90;1.00;;;;;;10357714;28;20207;-76
2023/10/18 05:51:26;;;;;;;6.20;2.10;;;7.90;87.80;;;;;;10358788;28;20414;-76
2023/10/18 05:56:52;;;;;;;5.33;1.80;;;8.00;99.90;;;;;;10343263;28;20231;-76
2023/10/18 06:02:22;;;;;;;2.47;1.87;;;8.00;1.00;;;;;;10356914;28;20201;-75
2023/10/18 06:07:45;;;;;;;6.87;2.13;;;8.00;1.00;;;;;;10357946;28;20308;-76
2023/10/18 06:13:10;;;;;;;6.37;2.57;;;8.10;1.00;;;;;;10330237;28;20228;-76
2023/10/18 06:18:31;;;;;;;4.97;1.93;;;8.20;1.00;;;;;;10343975;28;20205;-75
2023/10/18 06:23:55;;;;;;;2.93;2.10;;;8.30;99.90;;;;;;10349434;28;20453;-77
2023/10/18 06:29:22;;;;;;;7.67;2.60;;;8.30;1.00;;;;;;10356029;28;20227;-76
2023/10/18 06:34:43;;;;;;;4.27;1.80;;;8.30;1.00;;;;;;10356353;28;20212;-76
2023/10/18 06:40:08;;;;;;;4.60;1.90;;;8.40;1.00;;;;;;10356364;28;20231;-76
2023/10/18 06:45:33;;;;;;;3.37;1.50;;;8.40;1.00;;;;;;10356786;28;20191;-76
2023/10/18 06:50:55;;;;;;;5.90;1.90;;;8.50;1.00;;;;;;10355110;28;20255;-76
2023/10/18 06:56:19;;;;;;;5.13;2.23;;;8.60;27.40;;;;;;10354537;28;20211;-77
2023/10/18 07:01:54;;;;;;;6.87;1.93;;;8.70;1.00;;;;;;10356142;28;20197;-77
2023/10/18 07:07:26;;;;;;;4.03;2.10;;;8.80;99.90;;;;;;10355971;28;20195;-77
2023/10/18 07:12:52;;;;;;;3.30;1.70;;;8.90;99.90;;;;;;10354724;28;20595;-76
2023/10/18 07:18:14;;;;;;;3.07;1.63;;;9.20;99.90;;;;;;10354552;28;20395;-77
2023/10/18 07:23:36;;;;;;;8.17;2.50;;;9.20;99.90;;;;;;10298128;28;20258;-79
2023/10/18 07:28:57;;;;;;;5.40;2.43;;;9.10;1.00;;;;;;10340019;28;20208;-77
2023/10/18 07:34:18;;;;;;;7.67;2.30;;;9.20;1.00;;;;;;10349472;28;20201;-77
2023/10/18 07:39:41;;;;;;;6.87;2.37;;;9.20;1.00;;;;;;10348814;28;20244;-77
2023/10/18 07:45:04;;;;;;;4.57;2.23;;;9.70;1.00;;;;;;10349258;28;20213;-77
2023/10/18 07:50:35;;;;;;;3.93;2.20;;;10.20;1.00;;;;;;10349039;28;20228;-76
2023/10/18 07:56:00;;;;;;;5.27;2.13;;;10.20;1.00;;;;;;10348668;28;20404;-76
2023/10/18 08:07:04;;;;;;;4.27;1.90;;;10.90;1.00;;;;;;10349626;28;20200;-77
2023/10/18 08:12:28;;;;;;;3.45;1.67;;;13.20;1.00;;;;;;10348589;28;20224;-78
2023/10/18 08:17:50;;;;;;;4.80;2.30;;;14.30;17.10;;;;;;10347899;28;20471;-76
2023/10/18 08:23:34;;;;;;;2.83;1.40;;;13.90;3.50;;;;;;10346442;28;20218;-77
2023/10/18 08:28:55;;;;;;;5.85;2.20;;;13.40;5.50;;;;;;10348926;28;20507;-78
2023/10/18 08:34:17;;;;;;;5.65;2.10;;;13.30;91.00;;;;;;10348415;28;20208;-80
2023/10/18 08:39:55;;;;;;;4.80;1.73;;;13.40;87.50;;;;;;10331844;28;20252;-80
2023/10/18 08:45:21;;;;;;;4.00;1.67;;;13.60;99.90;;;;;;10352235;28;20225;-77
2023/10/18 08:50:45;;;;;;;3.60;1.57;;;13.60;99.90;;;;;;10352874;28;20244;-76
2023/10/18 08:56:06;;;;;;;2.70;1.50;;;12.80;99.90;;;;;;10354853;28;20541;-78
2023/10/18 09:01:34;;;;;;;5.13;1.40;;;12.10;1.00;;;;;;10354204;28;20243;-76
2023/10/18 09:07:01;;;;;;;8.47;1.23;;;11.90;1.00;;;;;;10354787;28;20215;-78
2023/10/18 09:13:08;;;;;;;2.77;1.10;;;11.90;1.00;;;;;;10355954;28;20472;-77
2023/10/18 09:18:18;;;;;;;3.70;1.00;;;12.00;1.00;;;;;;10354589;28;20278;-78
2023/10/18 09:23:40;;;;;;;2.90;1.20;;;12.00;1.00;;;;;;10314544;28;20237;-79
2023/10/18 09:29:02;;;;;;;5.13;1.73;;;12.10;1.00;;;;;;10348526;28;20654;-76
2023/10/18 09:34:23;;;;;;;3.10;1.07;;;11.90;1.00;;;;;;10353797;28;20501;-75
2023/10/18 09:39:46;;;;;;;4.10;1.23;;;11.60;99.90;;;;;;10324934;28;20267;-75
2023/10/18 09:45:08;;;;;;;4.70;1.53;;;11.50;99.90;;;;;;10326547;28;20189;-76
2023/10/18 09:50:36;;;;;;;2.87;1.43;;;11.50;99.90;;;;;;10313905;28;20414;-76
2023/10/18 09:56:00;;;;;;;8.57;1.90;;;11.70;99.90;;;;;;10311764;28;20229;-76
2023/10/18 10:01:29;;;;;;;2.40;1.23;;;12.00;1.00;;;;;;10325974;28;20195;-79
2023/10/18 10:06:55;;;;;;;8.53;2.90;;;12.20;1.00;;;;;;10336280;28;20273;-78
2023/10/18 10:12:17;;;;;;;3.60;1.67;;;12.30;1.00;;;;;;10352038;28;20312;-78
2023/10/18 10:17:41;;;;;;;4.40;1.33;;;12.30;1.00;;;;;;10351108;28;20225;-80
2023/10/18 10:23:06;;;;;;;7.03;1.77;;;12.10;1.00;;;;;;10334328;28;20204;-76
2023/10/18 10:34:36;;;;;;;5.07;1.23;;;12.20;1.00;;;;;;10345948;28;20442;-77
2023/10/18 10:51:13;;;;;;;2.17;1.13;;;12.90;99.90;;;;;;10349679;28;20235;-76
2023/10/18 10:56:43;;;;;;;3.50;1.80;;;12.80;99.90;;;;;;10351130;28;20197;-76
2023/10/18 11:02:06;;;;;;;12.10;1.97;;;13.50;99.90;;;;;;10349999;28;20212;-75
2023/10/18 11:07:29;;;;;;;3.00;1.30;;;13.20;99.90;;;;;;10348480;28;20203;-78
2023/10/18 11:12:50;;;;;;;5.28;1.88;;;13.10;99.90;;;;;;10350554;28;20242;-77
2023/10/18 11:18:20;;;;;;;3.33;1.50;;;14.50;31.40;;;;;;10350578;28;20218;-77
2023/10/18 11:23:43;;;;;;;7.32;3.78;;;14.80;1.00;;;;;;10354516;28;20210;-76
2023/10/18 11:29:07;;;;;;;6.05;2.22;;;14.40;1.00;;;;;;10349293;28;20234;-77
2023/10/18 11:34:29;;;;;;;17.80;8.10;;;14.20;1.00;;;;;;10350402;28;20280;-77
2023/10/18 11:39:50;;;;;;;6.03;3.10;;;13.60;1.00;;;;;;10349085;28;20307;-78
2023/10/18 11:45:19;;;;;;;3.57;1.40;;;13.20;4.20;;;;;;10321030;28;20207;-77
2023/10/18 11:50:47;;;;;;;3.80;1.07;;;12.80;99.90;;;;;;10335002;28;20330;-77
2023/10/18 11:56:09;;;;;;;5.87;1.30;;;12.60;99.90;;;;;;10308544;28;20538;-80
2023/10/18 12:01:38;;;;;;;3.23;1.57;;;12.50;99.90;;;;;;10322163;28;20223;-77
2023/10/18 12:07:00;;;;;;;9.77;4.33;;;12.60;99.90;;;;;;10317590;28;20196;-77
2023/10/18 12:12:24;;;;;;;4.50;1.30;;;12.80;99.90;;;;;;10347836;28;20224;-78
2023/10/18 12:17:49;;;;;;;4.97;1.70;;;13.50;99.90;;;;;;10351698;28;20681;-77
2023/10/18 12:23:18;;;;;;;5.83;2.00;;;14.40;1.00;;;;;;10356319;28;20197;-76
2023/10/18 12:28:41;;;;;;;2.05;1.15;;;14.30;1.00;;;;;;10353610;28;20199;-76
2023/10/18 12:34:02;;;;;;;4.05;1.38;;;14.90;1.00;;;;;;10340809;28;20467;-78
2023/10/18 12:39:25;;;;;;;4.03;1.20;;;16.10;1.00;;;;;;10352976;28;20244;-79
2023/10/18 12:44:47;;;;;;;3.33;1.63;;;16.30;1.00;;;;;;10354469;28;20211;-78
2023/10/18 12:50:09;;;;;;;4.18;1.50;;;15.30;1.00;;;;;;10354976;28;20253;-83
2023/10/18 12:55:33;;;;;;;1.83;1.30;;;14.80;1.00;;;;;;10355189;28;20530;-78
2023/10/18 13:00:55;;;;;;;3.77;1.93;;;14.10;1.00;;;;;;10352155;28;20200;-78
2023/10/18 13:06:16;;;;;;;2.90;1.50;;;13.50;1.00;;;;;;10351727;28;20526;-75
2023/10/18 13:17:10;;;;;;;5.27;1.90;;;12.80;99.90;;;;;;10352803;28;20474;-76
2023/10/18 13:22:34;;;;;;;3.07;1.33;;;12.60;1.00;;;;;;10350747;28;20258;-75
2023/10/18 13:27:55;;;;;;;4.23;1.70;;;12.50;1.00;;;;;;10350912;28;20549;-77
2023/10/18 13:33:18;;;;;;;3.00;1.93;;;12.40;1.00;;;;;;10351872;28;20480;-76
2023/10/18 13:38:40;;;;;;;5.73;2.00;;;12.30;1.00;;;;;;10353943;28;20227;-76
2023/10/18 13:44:04;;;;;;;4.93;1.90;;;12.30;1.00;;;;;;10351953;28;20193;-76
2023/10/18 13:49:25;;;;;;;3.50;1.73;;;12.20;32.00;;;;;;10350205;28;20196;-76
2023/10/18 13:54:46;;;;;;;2.53;1.60;;;12.10;99.90;;;;;;10352769;28;20205;-76
2023/10/18 14:00:08;;;;;;;4.00;1.90;;;11.90;1.00;;;;;;10353433;28;20222;-75
2023/10/18 14:05:39;;;;;;;4.87;2.87;;;11.80;1.00;;;;;;10352221;28;20202;-76
2023/10/18 14:11:00;;;;;;;6.43;3.20;;;11.80;99.90;;;;;;10351265;28;20237;-77
2023/10/18 14:16:22;;;;;;;4.20;1.97;;;11.80;99.90;;;;;;10352851;28;20238;-77
2023/10/18 14:21:47;;;;;;;2.63;1.60;;;11.80;99.90;;;;;;10339253;28;20200;-78
2023/10/18 14:27:09;;;;;;;6.27;2.10;;;11.60;1.00;;;;;;10366134;28;20470;-75
2023/10/18 14:32:33;;;;;;;8.00;2.70;;;11.50;1.00;;;;;;10352215;28;20554;-76
2023/10/18 14:37:54;;;;;;;5.17;2.50;;;11.50;99.90;;;;;;10352138;28;20258;-79
2023/10/18 14:43:15;;;;;;;6.00;2.57;;;11.40;99.90;;;;;;10350486;28;20206;-75
2023/10/18 14:48:37;;;;;;;5.97;2.00;;;11.50;99.90;;;;;;10350393;28;20206;-76
2023/10/18 14:53:59;;;;;;;4.77;2.10;;;11.40;1.00;;;;;;10350384;28;20315;-76
2023/10/18 14:59:21;;;;;;;5.40;1.60;;;11.30;1.00;;;;;;10351727;28;20432;-75
2023/10/18 15:04:49;;;;;;;4.20;1.70;;;11.30;1.00;;;;;;10310916;28;20224;-77
2023/10/18 15:10:11;;;;;;;5.93;2.40;;;11.20;99.90;;;;;;10314251;28;20406;-76
2023/10/18 15:15:35;;;;;;;5.63;2.97;;;11.10;1.00;;;;;;10313944;28;20203;-76
2023/10/18 15:20:59;;;;;;;6.30;3.13;;;11.00;99.90;;;;;;10314053;28;20204;-75
2023/10/18 15:26:25;;;;;;;11.17;6.53;;;11.10;99.90;;;;;;10315123;28;20540;-75
2023/10/18 15:31:47;;;;;;;24.33;12.93;;;11.10;1.00;;;;;;10296764;28;20392;-75
2023/10/18 15:37:11;;;;;;;24.67;11.80;;;11.00;1.00;;;;;;10271754;28;20299;-76
2023/10/18 15:42:32;;;;;;;30.87;12.87;;;10.90;99.90;;;;;;10271621;28;20209;-77
2023/10/18 15:47:53;;;;;;;24.90;13.60;;;10.80;1.00;;;;;;10273863;28;20379;-77
2023/10/18 15:53:14;;;;;;;26.50;14.50;;;10.60;99.90;;;;;;10273881;28;20227;-76
2023/10/18 15:58:41;;;;;;;36.93;16.53;;;10.50;1.00;;;;;;10283878;28;20272;-76
2023/10/18 16:04:03;;;;;;;26.93;13.03;;;10.40;99.90;;;;;;10314608;28;20200;-76
2023/10/18 16:09:27;;;;;;;19.47;9.27;;;10.30;99.90;;;;;;10313887;28;20193;-77
2023/10/18 16:14:48;;;;;;;15.83;7.97;;;10.30;1.00;;;;;;10313855;28;20464;-76
2023/10/18 16:20:11;;;;;;;20.00;12.30;;;10.20;1.00;;;;;;10291768;28;20210;-76
2023/10/18 16:25:39;;;;;;;19.57;11.97;;;10.10;1.00;;;;;;10303584;28;20489;-76
2023/10/18 16:31:10;;;;;;;16.17;10.37;;;9.90;99.90;;;;;;10286576;28;20228;-77
2023/10/18 16:36:33;;;;;;;17.13;10.20;;;9.80;1.00;;;;;;10310729;28;20272;-76
2023/10/18 16:41:54;;;;;;;20.93;12.83;;;9.70;1.00;;;;;;10313544;28;20196;-76
2023/10/18 16:47:16;;;;;;;44.97;28.50;;;9.60;1.00;;;;;;10313434;28;20226;-76
2023/10/18 16:52:37;;;;;;;52.23;31.33;;;9.60;1.00;;;;;;10312037;28;20222;-76
2023/10/18 16:57:58;;;;;;;72.07;39.83;;;9.50;99.90;;;;;;10272489;28;20379;-76
2023/10/18 17:03:20;;;;;;;79.20;44.23;;;9.50;99.90;;;;;;10316541;28;20420;-76
2023/10/18 17:08:43;;;;;;;77.47;43.20;;;9.50;99.90;;;;;;10320456;28;20234;-75
2023/10/18 17:14:04;;;;;;;76.87;42.17;;;9.50;1.00;;;;;;10319920;28;20218;-76
2023/10/18 17:19:26;;;;;;;78.37;40.83;;;9.50;1.00;;;;;;10319141;28;20195;-76
2023/10/18 17:24:50;;;;;;;62.90;34.63;;;9.40;1.00;;;;;;10318670;28;20203;-75
2023/10/18 17:30:13;;;;;;;80.70;37.67;;;9.40;99.90;;;;;;10319461;28;20208;-76
2023/10/18 17:35:38;;;;;;;118.90;46.37;;;9.40;1.00;;;;;;10318593;28;20198;-76
2023/10/18 17:40:59;;;;;;;105.70;38.03;;;9.30;99.90;;;;;;10318079;28;20196;-75
2023/10/18 17:46:21;;;;;;;64.50;26.23;;;9.30;1.00;;;;;;10311255;28;20221;-75
2023/10/18 17:51:42;;;;;;;44.63;20.43;;;9.20;1.00;;;;;;10317804;28;20413;-76
2023/10/18 17:57:03;;;;;;;35.07;16.73;;;9.00;1.00;;;;;;10318081;28;20189;-75
2023/10/18 18:02:24;;;;;;;40.37;20.00;;;8.90;1.00;;;;;;10317765;28;20198;-76
2023/10/18 18:07:45;;;;;;;50.87;28.83;;;8.80;99.90;;;;;;10292137;28;20205;-75
2023/10/18 18:13:07;;;;;;;67.63;37.27;;;8.70;1.00;;;;;;10317297;28;20229;-76
2023/10/18 18:18:29;;;;;;;71.70;41.47;;;8.60;1.00;;;;;;10316123;28;20193;-76
2023/10/18 18:23:51;;;;;;;70.33;43.13;;;8.60;1.00;;;;;;10292339;28;20232;-76
2023/10/18 18:29:13;;;;;;;73.30;42.73;;;8.60;99.90;;;;;;10300265;28;20197;-75
2023/10/18 18:34:34;;;;;;;68.87;39.77;;;8.40;1.00;;;;;;10299920;28;20410;-76
2023/10/18 18:39:55;;;;;;;63.33;38.77;;;8.40;99.90;;;;;;10316614;28;20234;-76
2023/10/18 18:45:19;;;;;;;67.07;38.87;;;8.20;99.90;;;;;;10315751;28;20276;-76
2023/10/18 18:50:40;;;;;;;71.50;36.23;;;8.30;1.00;;;;;;10315349;28;20447;-75
2023/10/18 18:56:09;;;;;;;66.33;35.27;;;8.20;99.90;;;;;;10316162;28;20201;-76
2023/10/18 19:01:31;;;;;;;63.10;32.47;;;8.20;1.00;;;;;;10315990;28;20393;-76
2023/10/18 19:06:52;;;;;;;68.20;38.03;;;8.30;99.90;;;;;;10314406;28;20194;-75
2023/10/18 19:12:14;;;;;;;74.27;41.93;;;8.50;99.90;;;;;;10313941;28;20250;-76
2023/10/18 19:17:35;;;;;;;81.43;45.73;;;8.50;99.90;;;;;;10300206;28;20377;-76
2023/10/18 19:23:02;;;;;;;110.23;57.07;;;8.40;96.80;;;;;;10284453;28;20276;-76
2023/10/18 19:28:24;;;;;;;113.60;62.33;;;8.40;1.00;;;;;;10280768;28;20189;-76
2023/10/18 19:33:46;;;;;;;107.17;59.13;;;8.30;1.00;;;;;;10315133;28;20562;-76
2023/10/18 19:39:08;;;;;;;111.30;58.17;;;8.20;1.00;;;;;;10314784;28;20229;-75
2023/10/18 19:44:30;;;;;;;106.63;53.27;;;8.10;99.90;;;;;;10314484;28;20197;-76
2023/10/18 19:49:51;;;;;;;85.40;44.33;;;8.00;1.00;;;;;;10314833;28;20198;-76
2023/10/18 19:55:13;;;;;;;63.33;33.63;;;7.80;99.90;;;;;;10313581;28;20232;-76
2023/10/18 20:00:36;;;;;;;54.90;27.80;;;7.70;1.00;;;;;;10314298;28;20203;-76
2023/10/18 20:06:01;;;;;;;45.43;25.67;;;7.70;99.90;;;;;;10314486;28;20496;-76
2023/10/18 20:11:22;;;;;;;38.97;22.10;;;7.60;1.00;;;;;;10314119;28;20219;-76
2023/10/18 20:16:43;;;;;;;41.60;20.60;;;7.60;1.00;;;;;;10313642;28;20199;-75
2023/10/18 20:22:04;;;;;;;36.03;18.50;;;7.60;1.00;;;;;;10299359;28;20363;-75
2023/10/18 20:27:25;;;;;;;29.47;15.90;;;7.40;99.90;;;;;;10306739;28;20270;-76
2023/10/18 20:32:47;;;;;;;30.43;16.53;;;7.50;99.90;;;;;;10314037;28;20276;-75
2023/10/18 20:38:09;;;;;;;53.73;28.07;;;7.50;1.00;;;;;;10317840;28;20543;-76
2023/10/18 20:43:30;;;;;;;80.20;37.77;;;7.50;99.90;;;;;;10320762;28;20199;-76
2023/10/18 20:48:54;;;;;;;88.83;42.67;;;7.50;1.00;;;;;;10321366;28;20194;-76
2023/10/18 20:54:19;;;;;;;86.23;43.57;;;;;;;;;;10320468;28;20415;-76
2023/10/18 20:59:45;;;;;;;93.83;46.17;;;7.30;1.00;;;;;;10309345;28;20268;-75
2023/10/18 21:05:09;;;;;;;80.33;42.83;;;7.20;99.90;;;;;;10319879;28;20195;-76
2023/10/18 21:10:32;;;;;;;70.47;37.30;;;7.20;99.90;;;;;;10319217;28;20358;-75
2023/10/18 21:15:53;;;;;;;85.67;43.23;;;7.10;99.90;;;;;;10279325;29;20203;-75
2023/10/18 21:21:15;;;;;;;64.00;36.67;;;7.10;99.90;;;;;;10301178;28;20207;-76
2023/10/18 21:26:39;;;;;;;48.37;25.63;;;7.00;1.00;;;;;;10289009;28;20218;-76
2023/10/18 21:32:00;;;;;;;44.43;23.27;;;7.00;1.00;;;;;;10319829;28;20226;-76
2023/10/18 21:37:21;;;;;;;44.47;21.13;;;7.00;1.00;;;;;;10319356;28;20242;-75
2023/10/18 21:42:44;;;;;;;51.47;24.03;;;7.00;1.00;;;;;;10318266;28;20195;-75
2023/10/18 21:48:05;;;;;;;53.07;27.37;;;6.90;1.00;;;;;;10318188;28;20197;-75
2023/10/18 21:53:28;;;;;;;65.77;31.00;;;6.90;1.00;;;;;;10318502;28;20233;-76
2023/10/18 21:58:51;;;;;;;73.23;34.10;;;6.80;99.90;;;;;;10318414;28;20215;-76
2023/10/18 22:04:12;;;;;;;60.93;27.50;;;6.80;99.90;;;;;;10318442;28;20387;-76
2023/10/18 22:09:43;;;;;;;59.30;26.23;;;6.80;1.00;;;;;;10317801;28;20196;-76
2023/10/18 22:15:12;;;;;;;52.17;26.43;;;6.70;1.00;;;;;;10278379;28;20272;-75
2023/10/18 22:20:37;;;;;;;52.60;25.77;;;6.70;1.00;;;;;;10309757;28;20219;-76
2023/10/18 22:25:59;;;;;;;41.67;23.00;;;6.70;99.70;;;;;;10290238;28;20522;-76
2023/10/18 22:31:34;;;;;;;30.07;15.80;;;6.70;1.00;;;;;;10276349;29;20434;-76
2023/10/18 22:36:56;;;;;;;18.73;11.20;;;6.80;1.00;;;;;;10292027;28;20240;-75
2023/10/18 22:42:29;;;;;;;21.30;10.93;;;6.90;51.50;;;;;;10317376;28;20271;-76
2023/10/18 22:47:51;;;;;;;13.67;8.70;;;7.00;99.90;;;;;;10316937;28;20196;-76
2023/10/18 22:58:33;;;;;;;14.83;8.23;;;6.90;1.00;;;;;;10316367;28;20191;-76
2023/10/18 23:04:00;;;;;;;13.90;7.67;;;6.80;1.00;;;;;;10316101;28;20227;-75
2023/10/18 23:09:23;;;;;;;13.10;7.13;;;6.80;99.90;;;;;;10314495;28;20188;-76
2023/10/18 23:14:53;;;;;;;10.57;7.13;;;6.60;1.00;;;;;;10315828;28;20235;-76
2023/10/18 23:20:19;;;;;;;14.07;8.33;;;6.50;99.90;;;;;;10315066;28;20198;-76
2023/10/18 23:31:31;;;;;;;13.33;7.80;;;6.50;99.90;;;;;;10232033;29;20312;-75
2023/10/18 23:36:59;;;;;;;12.97;6.23;;;6.30;1.00;;;;;;10231612;29;20232;-75
2023/10/18 23:42:25;;;;;;;12.77;7.27;;;6.40;37.40;;;;;;10231551;29;20393;-75
2023/10/18 23:58:32;;;;;;;12.63;7.73;;;6.60;99.90;;;;;;10231564;29;20236;-76
